Time;durP1;ratioP1;P1;durP2;ratioP2;P2;SDS_P1;SDS_P2;PMS_P1;PMS_P2;Temp;Humidity;BMP_temperature;BMP_pressure;BME280_temperature;BME280_humidity;BME280_pressure;Samples;Min_cycle;Max_cycle;Signal;HPM_P1;HPM_P2
2022/12/22 08:11:37;;;;;;;1.87;1.10;;;9.20;99.90;;;;;;5137842;27;20277;-81
2022/12/22 08:21:14;;;;;;;1.77;0.93;;;9.30;99.90;;;;;;5137689;27;20268;-83
2022/12/22 08:23:39;;;;;;;2.53;1.07;;;9.50;99.90;;;;;;5118910;28;20203;-82
2022/12/22 08:27:46;;;;;;;2.83;1.33;;;9.40;99.90;;;;;;5138552;27;20284;-82
2022/12/22 08:32:18;;;;;;;2.90;1.00;;;9.40;99.90;;;;;;5137471;27;20268;-83
2022/12/22 08:35:58;;;;;;;2.57;1.20;;;9.40;99.90;;;;;;5138990;27;20272;-82
2022/12/22 08:40:32;;;;;;;2.23;1.10;;;9.40;99.90;;;;;;5160402;27;20267;-82
2022/12/22 08:43:03;;;;;;;1.23;0.80;;;9.50;99.90;;;;;;5140722;27;20184;-83
2022/12/22 08:46:44;;;;;;;1.67;0.80;;;9.50;99.90;;;;;;5139362;27;20292;-82
2022/12/22 08:49:10;;;;;;;3.43;1.20;;;9.50;99.90;;;;;;5139549;27;20600;-81
2022/12/22 08:57:49;;;;;;;1.00;0.80;;;9.70;99.90;;;;;;5138604;27;20281;-83
2022/12/22 09:00:15;;;;;;;3.47;1.10;;;9.70;99.90;;;;;;5136874;28;20528;-83
2022/12/22 09:02:40;;;;;;;3.03;1.10;;;9.90;99.90;;;;;;5136807;28;20178;-81
2022/12/22 09:06:25;;;;;;;3.10;1.00;;;9.80;99.90;;;;;;5139411;27;20270;-81
2022/12/22 09:08:57;;;;;;;3.83;1.10;;;10.10;99.90;;;;;;5136979;28;20192;-83
2022/12/22 09:11:23;;;;;;;2.30;1.27;;;10.10;99.90;;;;;;5137591;27;20177;-80
2022/12/22 09:13:51;;;;;;;2.47;1.00;;;10.20;99.90;;;;;;5136668;27;20182;-82
2022/12/22 09:16:18;;;;;;;2.60;1.10;;;10.30;99.90;;;;;;5135147;28;20181;-81
2022/12/22 09:18:44;;;;;;;2.57;0.87;;;10.20;99.90;;;;;;5135339;28;20198;-83
2022/12/22 09:21:10;;;;;;;1.63;1.07;;;10.20;99.90;;;;;;5137088;28;20212;-82
2022/12/22 09:23:35;;;;;;;4.97;0.80;;;10.30;99.90;;;;;;5137663;27;20652;-81
2022/12/22 09:26:07;;;;;;;1.53;0.90;;;11.00;99.90;;;;;;5135573;28;20201;-81
2022/12/22 09:28:33;;;;;;;1.50;0.93;;;11.50;99.90;;;;;;5135210;28;20191;-81
2022/12/22 09:30:59;;;;;;;1.60;0.77;;;11.60;99.90;;;;;;5136758;27;20175;-81
2022/12/22 09:33:25;;;;;;;2.63;0.80;;;11.90;99.90;;;;;;5139904;27;20266;-81
2022/12/22 09:35:51;;;;;;;4.13;1.23;;;11.80;99.90;;;;;;5139712;28;20175;-83
2022/12/22 09:38:17;;;;;;;3.57;1.20;;;11.90;99.90;;;;;;5142551;27;20650;-84
2022/12/22 09:40:42;;;;;;;2.30;1.10;;;12.10;99.90;;;;;;5141684;28;20190;-82
2022/12/22 09:43:14;;;;;;;2.53;1.30;;;11.50;99.90;;;;;;5142050;27;20178;-82
2022/12/22 09:45:40;;;;;;;0.90;0.80;;;11.00;99.90;;;;;;5140230;27;20248;-82
2022/12/22 09:48:10;;;;;;;3.67;1.00;;;11.20;99.90;;;;;;5147533;28;20201;-80
2022/12/22 09:50:38;;;;;;;1.23;0.90;;;11.10;99.90;;;;;;5149513;27;20167;-80
2022/12/22 09:53:06;;;;;;;3.03;1.07;;;10.80;99.90;;;;;;5140352;28;20262;-82
2022/12/22 09:55:44;;;;;;;3.13;1.00;;;10.80;99.90;;;;;;5134380;28;20175;-82
2022/12/22 09:58:36;;;;;;;2.73;1.10;;;10.60;99.90;;;;;;5135543;28;20308;-83
2022/12/22 10:01:09;;;;;;;3.60;0.90;;;10.40;99.90;;;;;;5131837;28;20260;-82
2022/12/22 10:03:51;;;;;;;1.47;1.00;;;10.40;99.90;;;;;;5133838;28;20552;-82
2022/12/22 10:06:33;;;;;;;4.93;1.17;;;10.30;99.90;;;;;;5135139;27;20234;-82
2022/12/22 10:09:13;;;;;;;2.83;1.07;;;10.40;99.90;;;;;;5134816;27;20166;-82
2022/12/22 10:11:39;;;;;;;2.97;1.03;;;10.60;99.90;;;;;;5134880;27;20162;-81
2022/12/22 10:14:04;;;;;;;4.73;1.30;;;11.20;99.90;;;;;;5132861;28;20167;-82
2022/12/22 10:16:30;;;;;;;3.47;1.13;;;12.00;99.90;;;;;;5126017;28;20563;-83
2022/12/22 10:18:59;;;;;;;3.70;0.97;;;12.40;99.90;;;;;;5118729;28;20536;-82
2022/12/22 10:21:25;;;;;;;3.13;1.00;;;12.40;99.90;;;;;;5118152;28;20637;-82
2022/12/22 10:23:51;;;;;;;1.83;1.00;;;11.90;99.90;;;;;;5117781;27;20168;-82
2022/12/22 10:26:28;;;;;;;2.97;1.33;;;11.30;99.90;;;;;;5116081;28;20238;-83
2022/12/22 10:29:07;;;;;;;2.77;1.23;;;11.00;99.90;;;;;;5118332;28;20220;-83
2022/12/22 10:31:35;;;;;;;3.53;1.10;;;10.80;99.90;;;;;;5122418;28;20202;-82
2022/12/22 10:34:15;;;;;;;5.83;1.20;;;10.70;99.90;;;;;;5122642;28;20287;-82
2022/12/22 10:36:49;;;;;;;2.70;1.10;;;10.60;99.90;;;;;;5122079;28;20175;-82
2022/12/22 10:39:20;;;;;;;6.40;1.67;;;10.60;99.90;;;;;;5122823;28;20164;-82
2022/12/22 10:41:48;;;;;;;5.57;1.10;;;10.50;99.90;;;;;;5122311;28;20179;-82
2022/12/22 10:44:14;;;;;;;4.23;1.27;;;10.50;99.90;;;;;;5121644;28;20176;-82
2022/12/22 10:46:43;;;;;;;2.40;0.80;;;10.40;99.90;;;;;;5123013;28;20216;-82
2022/12/22 10:49:29;;;;;;;3.00;1.10;;;10.20;99.90;;;;;;5122315;27;20168;-82
2022/12/22 10:52:08;;;;;;;3.50;1.10;;;9.80;99.90;;;;;;5120968;28;20166;-82
2022/12/22 10:54:35;;;;;;;2.90;1.10;;;9.60;99.90;;;;;;5124593;28;20160;-82
2022/12/22 10:57:13;;;;;;;2.43;0.67;;;9.50;99.90;;;;;;5122398;28;20219;-82
2022/12/22 10:59:48;;;;;;;4.00;1.00;;;9.40;99.90;;;;;;5121767;28;20170;-83
2022/12/22 11:02:21;;;;;;;3.00;1.20;;;9.30;99.90;;;;;;5119944;28;20709;-80
2022/12/22 11:04:48;;;;;;;3.60;1.43;;;9.30;99.90;;;;;;5121449;28;20221;-82
2022/12/22 11:07:14;;;;;;;4.53;1.67;;;9.30;99.90;;;;;;5123997;28;20187;-81
2022/12/22 11:09:39;;;;;;;2.93;1.10;;;9.30;99.90;;;;;;5125550;28;20167;-80
2022/12/22 11:12:27;;;;;;;3.23;1.30;;;9.30;99.90;;;;;;5123310;28;20227;-82
2022/12/22 11:15:31;;;;;;;4.93;1.20;;;9.30;99.90;;;;;;5123842;28;20234;-83
2022/12/22 11:18:44;;;;;;;3.40;1.43;;;9.30;99.90;;;;;;5124384;28;20191;-81
2022/12/22 11:21:29;;;;;;;4.60;1.43;;;9.40;99.90;;;;;;5081569;28;20176;-81
2022/12/22 11:24:07;;;;;;;4.03;1.40;;;9.50;99.90;;;;;;5082634;28;20724;-82
2022/12/22 11:26:51;;;;;;;3.17;1.17;;;9.80;99.90;;;;;;5105627;28;20545;-83
2022/12/22 11:29:54;;;;;;;5.67;1.47;;;10.10;99.90;;;;;;5122909;28;20178;-83
2022/12/22 11:32:29;;;;;;;4.33;1.13;;;10.30;99.90;;;;;;5123762;28;20614;-82
2022/12/22 11:35:09;;;;;;;4.17;1.17;;;10.20;99.90;;;;;;5121938;28;20195;-83
2022/12/22 11:38:00;;;;;;;2.87;1.00;;;10.20;99.90;;;;;;5122038;28;20211;-82
2022/12/22 11:40:41;;;;;;;4.40;1.27;;;10.20;99.90;;;;;;5120174;28;20174;-81
2022/12/22 11:43:25;;;;;;;3.13;1.50;;;10.20;99.90;;;;;;5122779;27;20163;-81
2022/12/22 11:46:31;;;;;;;4.70;1.33;;;10.20;99.90;;;;;;5123552;28;20202;-81
2022/12/22 11:49:21;;;;;;;3.77;1.10;;;10.20;99.90;;;;;;5065100;28;20176;-82
2022/12/22 11:52:10;;;;;;;7.47;1.27;;;10.30;99.90;;;;;;5123510;28;20187;-83
2022/12/22 11:54:48;;;;;;;2.87;1.13;;;10.20;99.90;;;;;;5095824;28;20226;-83
2022/12/22 11:57:26;;;;;;;7.27;1.77;;;10.30;99.90;;;;;;5124385;28;20687;-83
2022/12/22 11:59:51;;;;;;;2.73;1.03;;;10.30;99.90;;;;;;5124622;28;20246;-82
2022/12/22 12:02:26;;;;;;;2.50;0.90;;;10.30;99.90;;;;;;5125105;28;20525;-82
2022/12/22 12:05:07;;;;;;;4.20;1.07;;;10.40;99.90;;;;;;5122401;28;20676;-82
2022/12/22 12:07:52;;;;;;;2.30;1.10;;;10.40;99.90;;;;;;5124536;27;20197;-82
2022/12/22 12:10:26;;;;;;;4.17;1.23;;;10.40;99.90;;;;;;5124802;28;20239;-83
2022/12/22 12:12:57;;;;;;;3.70;1.47;;;10.40;99.90;;;;;;5127506;28;20179;-81
2022/12/22 12:15:23;;;;;;;4.40;1.27;;;10.30;99.90;;;;;;5128952;28;20174;-82
2022/12/22 12:18:00;;;;;;;2.77;1.10;;;10.30;99.90;;;;;;5125871;28;20233;-84
2022/12/22 12:20:28;;;;;;;5.13;1.23;;;10.20;99.90;;;;;;5137533;28;20198;-82
2022/12/22 12:23:22;;;;;;;3.70;1.30;;;10.10;99.90;;;;;;5135747;28;20186;-82
2022/12/22 12:26:00;;;;;;;4.63;1.47;;;10.10;99.90;;;;;;5119260;28;20198;-82
2022/12/22 12:29:02;;;;;;;10.60;1.17;;;10.10;99.90;;;;;;5121600;28;20195;-81
2022/12/22 12:31:52;;;;;;;5.43;1.47;;;10.00;99.90;;;;;;5122039;28;20197;-81
2022/12/22 12:34:19;;;;;;;5.97;1.57;;;10.00;99.90;;;;;;5119866;28;20163;-81
2022/12/22 12:36:55;;;;;;;5.97;1.57;;;10.00;99.90;;;;;;5122468;28;20186;-82
2022/12/22 12:39:27;;;;;;;2.93;1.17;;;10.00;99.90;;;;;;5122046;28;20159;-84
2022/12/22 12:42:21;;;;;;;2.77;0.93;;;10.00;99.90;;;;;;5121921;28;20155;-82
2022/12/22 12:44:47;;;;;;;3.67;1.10;;;10.00;99.90;;;;;;5123589;28;20275;-83
2022/12/22 12:47:33;;;;;;;6.63;1.33;;;10.10;99.90;;;;;;5121496;28;20200;-83
2022/12/22 12:50:19;;;;;;;6.47;1.43;;;10.30;99.90;;;;;;5121008;28;20171;-82
2022/12/22 12:52:47;;;;;;;6.80;1.50;;;10.50;99.90;;;;;;5123512;28;20536;-84
2022/12/22 12:55:28;;;;;;;7.43;1.90;;;10.70;99.90;;;;;;5124636;28;20185;-85
2022/12/22 12:57:54;;;;;;;5.63;1.33;;;11.00;99.90;;;;;;5124721;28;20183;-84
2022/12/22 13:00:31;;;;;;;4.80;1.47;;;11.00;99.90;;;;;;5124689;28;20175;-83
2022/12/22 13:03:06;;;;;;;5.53;1.70;;;11.10;99.90;;;;;;5124124;28;20630;-82
2022/12/22 13:05:35;;;;;;;3.37;1.20;;;11.00;99.90;;;;;;5123316;28;20211;-82
2022/12/22 13:08:04;;;;;;;5.17;1.50;;;11.00;99.90;;;;;;5119979;28;20206;-83
2022/12/22 13:10:30;;;;;;;4.23;1.20;;;11.00;99.90;;;;;;5116494;28;20176;-81
2022/12/22 13:12:57;;;;;;;5.57;1.63;;;10.90;99.90;;;;;;5114369;28;20192;-81
2022/12/22 13:15:33;;;;;;;6.60;1.80;;;10.80;99.90;;;;;;5115417;28;20224;-83
2022/12/22 13:18:01;;;;;;;13.07;1.90;;;10.70;99.90;;;;;;5113338;28;20210;-84
2022/12/22 13:20:32;;;;;;;8.40;2.07;;;10.70;99.90;;;;;;5113162;28;20186;-83
2022/12/22 13:23:00;;;;;;;3.93;1.50;;;10.60;99.90;;;;;;5118637;28;20232;-82
2022/12/22 13:25:39;;;;;;;7.10;1.60;;;10.60;99.90;;;;;;5119654;28;20228;-82
2022/12/22 13:28:09;;;;;;;8.97;2.00;;;10.50;99.90;;;;;;5120814;28;20213;-83
2022/12/22 13:30:36;;;;;;;7.20;1.30;;;10.50;99.90;;;;;;5120214;28;20352;-83
2022/12/22 13:33:01;;;;;;;8.03;2.13;;;10.60;99.90;;;;;;5119929;28;20259;-82
2022/12/22 13:35:39;;;;;;;5.60;1.77;;;10.50;99.90;;;;;;5123934;28;20543;-83
2022/12/22 13:38:05;;;;;;;8.90;2.43;;;10.50;99.90;;;;;;5121532;28;20205;-83
2022/12/22 13:40:40;;;;;;;7.37;1.97;;;10.40;99.90;;;;;;5123244;28;20180;-84
2022/12/22 13:43:13;;;;;;;6.30;1.97;;;10.40;99.90;;;;;;5121623;28;20195;-80
2022/12/22 13:45:43;;;;;;;7.47;1.67;;;10.30;99.90;;;;;;5120123;28;20248;-84
2022/12/22 13:48:19;;;;;;;8.13;2.03;;;10.40;99.90;;;;;;5120466;28;20683;-83
2022/12/22 13:50:48;;;;;;;7.57;1.77;;;10.40;99.90;;;;;;5121107;28;20159;-84
2022/12/22 13:53:27;;;;;;;9.80;1.73;;;10.40;99.90;;;;;;5128965;28;20172;-82
2022/12/22 13:55:53;;;;;;;8.37;2.07;;;10.30;99.90;;;;;;5121387;28;20208;-83
2022/12/22 13:58:40;;;;;;;8.47;2.00;;;10.30;99.90;;;;;;5120675;28;20290;-82
2022/12/22 14:01:08;;;;;;;5.77;1.60;;;10.40;99.90;;;;;;5121526;28;20187;-83
2022/12/22 14:03:38;;;;;;;6.70;2.77;;;10.40;99.90;;;;;;5123964;28;20533;-85
2022/12/22 14:06:22;;;;;;;4.70;1.37;;;10.40;99.90;;;;;;5122978;28;20544;-82
2022/12/22 14:08:48;;;;;;;10.83;2.83;;;10.30;99.90;;;;;;5119630;28;20592;-82
2022/12/22 14:11:14;;;;;;;12.40;4.60;;;10.30;99.90;;;;;;5119829;28;20172;-83
2022/12/22 14:13:40;;;;;;;8.87;1.97;;;10.30;99.90;;;;;;5118276;28;20172;-82
2022/12/22 14:16:06;;;;;;;6.90;1.47;;;10.40;99.90;;;;;;5119162;28;20622;-82
2022/12/22 14:18:32;;;;;;;9.23;2.70;;;10.40;99.90;;;;;;5117998;28;20618;-83
2022/12/22 14:20:59;;;;;;;8.73;2.10;;;10.40;99.90;;;;;;5122744;27;20176;-83
2022/12/22 14:23:38;;;;;;;6.23;2.20;;;10.30;99.90;;;;;;5124496;28;20179;-84
2022/12/22 14:26:07;;;;;;;9.77;2.53;;;10.30;99.90;;;;;;5124145;28;20195;-84
2022/12/22 14:28:52;;;;;;;4.47;1.53;;;10.20;99.90;;;;;;5121721;28;20197;-82
2022/12/22 14:31:18;;;;;;;7.03;3.50;;;10.10;99.90;;;;;;5123025;28;20164;-83
2022/12/22 14:34:04;;;;;;;8.17;2.57;;;10.00;99.90;;;;;;5124899;28;20628;-83
2022/12/22 14:36:36;;;;;;;14.03;5.67;;;9.90;99.90;;;;;;5123376;28;20175;-83
2022/12/22 14:39:08;;;;;;;8.77;2.60;;;9.90;99.90;;;;;;5122421;28;20168;-82
2022/12/22 14:41:50;;;;;;;7.03;2.10;;;9.80;99.90;;;;;;5122628;28;20238;-82
2022/12/22 14:44:22;;;;;;;10.00;2.13;;;9.80;99.90;;;;;;5122210;28;20167;-84
2022/12/22 14:47:16;;;;;;;4.90;1.50;;;9.70;99.90;;;;;;5124897;28;20679;-83
2022/12/22 14:50:13;;;;;;;5.03;1.70;;;9.70;99.90;;;;;;5124543;28;20163;-83
2022/12/22 14:52:49;;;;;;;2.50;1.40;;;9.70;99.90;;;;;;5109300;28;20183;-83
2022/12/22 14:55:24;;;;;;;4.93;1.30;;;9.70;99.90;;;;;;5122922;28;20171;-82
2022/12/22 14:57:59;;;;;;;5.07;1.37;;;9.70;99.90;;;;;;5124370;28;20198;-83
2022/12/22 15:00:35;;;;;;;5.03;1.60;;;9.70;99.90;;;;;;5124248;28;20188;-83
2022/12/22 15:03:04;;;;;;;5.17;1.40;;;9.70;99.90;;;;;;5125660;27;20159;-85
2022/12/22 15:05:37;;;;;;;6.17;2.03;;;9.60;99.90;;;;;;5122371;28;20211;-84
2022/12/22 15:08:06;;;;;;;5.57;1.67;;;9.60;99.90;;;;;;5124341;28;20190;-84
2022/12/22 15:10:40;;;;;;;9.27;3.33;;;9.60;99.90;;;;;;5123879;28;20180;-83
2022/12/22 15:13:16;;;;;;;5.90;2.07;;;9.60;99.90;;;;;;5125196;28;20177;-82
2022/12/22 15:15:42;;;;;;;4.00;1.40;;;9.50;99.90;;;;;;5122773;28;20177;-83
